WEATHER DATA

YESTERDAY
Time Temp. Dewp. Hum. Bar. 1h Prec. 24h Prec.
00:00 16.1 14.5 90 1015.1 0.0000 0.0000
00:21 15.9 14.4 91 1015.1 0.0000 0.0000
00:31 15.8 14.3 91 1015.1 0.0000 0.0000
00:41 15.6 14.1 91 1015.3 0.0000 0.0000
00:52 15.4 13.9 91 1015.3 0.0000 0.0000
01:01 15.2 13.7 91 1015.3 0.0000 0.0000
01:11 15 13.7 92 1015.2 0.0000 0.0000
01:21 14.9 13.6 92 1015.2 0.0000 0.0000
01:32 14.7 13.4 92 1015.3 0.0000 0.0000
01:42 14.6 13.3 92 1015.3 0.0000 0.0000
01:51 14.5 13.2 92 1015.3 0.0000 0.0000
02:02 14.4 13.3 93 1015.3 0.0000 0.0000
02:12 14.4 13.3 93 1015.4 0.0000 0.0000
02:22 14.4 13.3 93 1015.3 0.0000 0.0000
02:32 14.4 13.1 92 1015.4 0.0000 0.0000
02:42 14.3 13 92 1015.4 0.0000 0.0000
02:52 14.2 12.9 92 1015.5 0.0000 0.0000
03:02 14.1 12.7 91 1015.6 0.0000 0.0000
03:13 14 12.4 90 1015.9 0.0000 0.0000
03:23 13.9 12.1 89 1016.1 0.0000 0.0000
03:32 13.9 11.9 88 1016.2 0.0000 0.0000
03:42 14 11.7 86 1016.2 0.0000 0.0000
03:53 13.9 11.6 86 1016.3 0.0000 0.0000
04:03 13.9 11.4 85 1016.4 0.0000 0.0000
04:13 13.8 11.3 85 1016.6 0.0000 0.0000
04:23 13.7 11.2 85 1016.5 0.0000 0.0000
04:33 13.9 11.1 83 1016.6 0.0000 0.0000
04:43 14.2 11.2 82 1016.8 0.0000 0.0000
04:53 14.4 11 80 1016.8 0.0000 0.0000
05:04 14.6 11.2 80 1016.9 0.0000 0.0000
05:14 14.8 11.2 79 1017.1 0.0000 0.0000
05:23 14.9 11.1 78 1017.2 0.0000 0.0000
05:34 15 11.2 78 1017.2 0.0000 0.0000
05:44 15.1 11.3 78 1017.4 0.0000 0.0000
05:54 15.1 11.1 77 1017.4 0.0000 0.0000
06:04 15 11 77 1017.5 0.0000 0.0000
06:14 14.9 10.9 77 1017.5 0.0000 0.0000
06:24 14.8 10.8 77 1017.5 0.0000 0.0000
06:34 14.9 10.7 76 1017.5 0.0000 0.0000
06:44 15 10.8 76 1017.7 0.0000 0.0000
06:55 15 10.6 75 1017.7 0.0000 0.0000
07:04 15.1 10.3 73 1017.8 0.0000 0.0000
07:14 15.1 10.3 73 1017.8 0.0000 0.0000
07:25 15.1 10.1 72 1017.8 0.0000 0.0000
07:35 15.2 10.2 72 1017.9 0.0000 0.0000
07:45 15.2 10 71 1018.1 0.0000 0.0000
07:55 15.2 9.8 70 1018.1 0.0000 0.0000
08:05 15.2 9.6 69 1018.3 0.0000 0.0000
08:15 15.3 9.7 69 1018.4 0.0000 0.0000
08:25 15.4 9.5 68 1018.5 0.0000 0.0000
08:36 15.6 9.7 68 1018.7 0.0000 0.0000
08:45 15.7 9.8 68 1018.7 0.0000 0.0000
08:55 15.9 9.8 67 1018.8 0.0000 0.0000
09:05 16.1 9.8 66 1018.9 0.0000 0.0000
09:16 16.3 9.7 65 1019 0.0000 0.0000
09:26 16.6 10 65 1019.1 0.0000 0.0000
09:36 16.8 10 64 1019.1 0.0000 0.0000
09:46 16.9 10.1 64 1019.3 0.0000 0.0000
09:56 17.2 9.9 62 1019.4 0.0000 0.0000
10:06 17.3 9.7 61 1019.5 0.0000 0.0000
10:16 17.4 9.8 61 1019.6 0.0000 0.0000
10:27 17.6 10 61 1019.7 0.0000 0.0000
10:36 17.8 9.9 60 1019.7 0.0000 0.0000
10:46 18 10.1 60 1019.8 0.0000 0.0000
10:57 18.1 10 59 1019.8 0.0000 0.0000
11:07 18.2 10.1 59 1019.9 0.0000 0.0000
11:17 18.3 9.9 58 1020 0.0000 0.0000
11:26 18.5 8.5 52 1020.2 0.0000 0.0000
11:37 18.8 8.7 52 1020.2 0.0000 0.0000
11:47 19 8.9 52 1020.4 0.0000 0.0000
11:57 19.1 9 52 1020.4 0.0000 0.0000
12:07 19.1 9.3 53 1020.4 0.0000 0.0000
12:17 19.1 8.7 51 1020.5 0.0000 0.0000
12:27 19.1 8.7 51 1020.6 0.0000 0.0000
12:37 19.4 8.7 50 1020.6 0.0000 0.0000
12:48 19.7 9 50 1020.6 0.0000 0.0000
12:58 19.7 7.8 46 1020.6 0.0000 0.0000
13:07 19.9 8.6 48 1020.6 0.0000 0.0000
13:18 19.8 8.8 49 1020.7 0.0000 0.0000
13:28 19.5 8.2 48 1020.8 0.0000 0.0000
13:38 19.5 9.1 51 1020.8 0.0000 0.0000
13:48 19.6 9.2 51 1020.9 0.0000 0.0000
13:59 19.9 9.2 50 1021 0.0000 0.0000
14:08 20.1 9.1 49 1021 0.0000 0.0000
14:18 19.9 8.6 48 1021.2 0.0000 0.0000
14:28 20.1 8.8 48 1021.2 0.0000 0.0000
14:39 19.7 8.1 47 1021.2 0.0000 0.0000
14:49 19.6 8.3 48 1021.2 0.0000 0.0000
14:59 19.6 8 47 1021.2 0.0000 0.0000
15:09 19.5 8.5 49 1021.2 0.0000 0.0000
15:19 19.5 8.5 49 1021.2 0.0000 0.0000
15:29 19.8 7.9 46 1021.3 0.0000 0.0000
15:39 20.1 8.4 47 1021.3 0.0000 0.0000
15:50 19.8 7.9 46 1021.3 0.0000 0.0000
16:00 19.1 8.1 49 1021.3 0.0000 0.0000
16:09 19.1 8.4 50 1021.2 0.0000 0.0000
16:20 19.8 9.4 51 1021.3 0.0000 0.0000
16:30 19.9 8.3 47 1021.4 0.0000 0.0000
16:40 20 8.4 47 1021.5 0.0000 0.0000
16:50 19.8 8.8 49 1021.4 0.0000 0.0000
17:00 19.6 8.3 48 1021.6 0.0000 0.0000
17:10 19.1 8.1 49 1021.7 0.0000 0.0000
17:20 18.7 8.4 51 1021.7 0.0000 0.0000
17:30 18.8 8.5 51 1021.7 0.0000 0.0000
17:41 18.8 8.5 51 1021.8 0.0000 0.0000
17:51 18.6 8 50 1021.8 0.0000 0.0000
18:00 18.4 8.4 52 1021.9 0.0000 0.0000
18:11 18.2 8.2 52 1022 0.0000 0.0000
18:21 18.1 8.7 54 1022 0.0000 0.0000
18:31 18 8.3 53 1022.1 0.0000 0.0000
18:41 17.9 8.2 53 1022.2 0.0000 0.0000
18:52 17.7 8 53 1022.3 0.0000 0.0000
19:01 17.4 7.7 53 1022.4 0.0000 0.0000
19:11 17 7.6 54 1022.4 0.0000 0.0000
19:22 16.8 8 56 1022.4 0.0000 0.0000
19:32 16.6 7.8 56 1022.5 0.0000 0.0000
19:42 16.5 8 57 1022.7 0.0000 0.0000
19:51 16.2 7.9 58 1022.7 0.0000 0.0000
20:02 15.9 8.2 60 1022.8 0.0000 0.0000
20:12 15.5 8 61 1022.9 0.0000 0.0000
20:22 15.2 8 62 1023.1 0.0000 0.0000
20:32 14.9 7.9 63 1023.1 0.0000 0.0000
20:43 14.7 8 64 1023.2 0.0000 0.0000
20:52 14.5 8 65 1023.4 0.0000 0.0000
21:02 14.3 8 66 1023.5 0.0000 0.0000
21:13 13.9 7.9 67 1023.5 0.0000 0.0000
21:23 13.5 7.7 68 1023.7 0.0000 0.0000
21:33 13.4 7.6 68 1023.8 0.0000 0.0000
21:43 13.1 7.5 69 1023.8 0.0000 0.0000
21:53 12.8 7.3 69 1023.9 0.0000 0.0000
22:03 12.4 7.1 70 1023.9 0.0000 0.0000
22:13 11.9 7 72 1024 0.0000 0.0000
22:24 11.3 6.8 74 1024.2 0.0000 0.0000
22:34 11 6.7 75 1024.2 0.0000 0.0000
22:43 10.7 6.6 76 1024.4 0.0000 0.0000
23:04 10.4 6.5 77 1024.5 0.0000 0.0000
23:14 10.6 6.4 75 1024.6 0.0000 0.0000
23:24 10.5 6.5 76 1024.6 0.0000 0.0000
23:34 10.5 6.5 76 1024.7 0.0000 0.0000
23:44 10.4 6.4 76 1024.7 0.0000 0.0000
23:54 10.2 6.4 77 1024.9 0.0000

DAY STATISTIC

2020-08-09
TEMPERATURE
AVERAGE
16.2
HIGH
20.1
14:08
LOW
10.2
23:54
PRESSURE
AVERAGE
1019.8
HIGH
1024.9
23:54
LOW
1015.1
00:00
DEWPOINT
AVERAGE
9.6
HIGH
14.5
00:00
LOW
6.4
23:14
HUMIDITY
AVERAGE
67
HIGH
93
02:02
LOW
46
12:58
PRECIPITATION
RAIN HOUR
0.0
RAIN DAY
0.0
TEMPERATURE (°C)
LOW
10.2
HIGH
20.1
AVERAGE
16.2
PRESSURE (hpa)
LOW
1015.1
HIGH
1024.9
AVERAGE
1019.8
DEVICE